This is the latest recevied weather packets stored in our database for station/object SP2FH-13. If no packets are shown the sender has not sent any weather packets the latest 10 day(s).
| Time | Temp. | Humidity | Pressure | Rain* | Wind** | Luminosity | Snow |
|---|---|---|---|---|---|---|---|
| 1777476243 | 10.56° C | 31% | 1017.9 hPa | - | - | 247 W/m² | - |
| 1777475941 | 11.11° C | 30% | 1017.9 hPa | - | - | 254 W/m² | - |
| 1777474435 | 10.56° C | 29% | 1017.9 hPa | - | - | 316 W/m² | - |
| 1777473531 | 10.56° C | 30% | 1017.8 hPa | - | - | 415 W/m² | - |
| 1777472927 | 11.11° C | 28% | 1017.7 hPa | - | - | 391 W/m² | - |
| 1777472324 | 11.11° C | 29% | 1017.6 hPa | - | - | 460 W/m² | - |
| 1777472024 | 11.11° C | 30% | 1017.7 hPa | - | - | 461 W/m² | - |
| 1777471723 | 10.56° C | 28% | 1017.7 hPa | - | - | 462 W/m² | - |
| 1777471121 | 10° C | 30% | 1017.6 hPa | - | - | 469 W/m² | - |
| 1777470817 | 9.44° C | 32% | 1017.8 hPa | - | - | 474 W/m² | - |
| 1777469914 | 9.44° C | 30% | 1017.7 hPa | - | - | 135 W/m² | - |
| 1777469612 | 8.89° C | 31% | 1017.8 hPa | - | - | 521 W/m² | - |
| 1777469311 | 10° C | 29% | 1017.6 hPa | - | - | 116 W/m² | - |
| 1777469010 | 9.44° C | 30% | 1017.6 hPa | - | - | 272 W/m² | - |
| 1777468709 | 10.56° C | 28% | 1017.6 hPa | - | - | 328 W/m² | - |
| 1777468407 | 11.11° C | 29% | 1017.5 hPa | - | - | 624 W/m² | - |
| 1777468106 | 10.56° C | 29% | 1017.6 hPa | - | - | 639 W/m² | - |
| 1777467503 | 9.44° C | 29% | 1017.6 hPa | - | - | 628 W/m² | - |
| 1777467202 | 9.44° C | 29% | 1017.7 hPa | - | - | 625 W/m² | - |
| 1777466902 | 10° C | 29% | 1017.7 hPa | - | - | 166 W/m² | - |
| 1777466299 | 9.44° C | 30% | 1017.7 hPa | - | - | 259 W/m² | - |
| 1777465998 | 10.56° C | 28% | 1017.6 hPa | - | - | 721 W/m² | - |
| 1777465697 | 9.44° C | 28% | 1017.8 hPa | - | - | 662 W/m² | - |
| 1777465397 | 8.89° C | 31% | 1017.7 hPa | - | - | 663 W/m² | - |
| 1777465095 | 8.89° C | 31% | 1017.7 hPa | - | - | 175 W/m² | - |
* Rain since midnight (hover to see other rain measurements)
** Current wind speed in m/s (hover to see current wind gust speed)